sensor_id;sensor_type;location;lat;lon;timestamp;pressure;altitude;pressure_sealevel;temperature;humidity
66547;BME280;53400;50.364;14.874;2023-05-03T00:01:49;99480.69;;;8.76;81.30
66547;BME280;53400;50.364;14.874;2023-05-03T00:04:15;99476.41;;;8.68;80.86
66547;BME280;53400;50.364;14.874;2023-05-03T00:06:43;99477.47;;;8.67;79.96
66547;BME280;53400;50.364;14.874;2023-05-03T00:09:09;99476.63;;;8.67;79.83
66547;BME280;53400;50.364;14.874;2023-05-03T00:11:35;99480.97;;;8.61;80.84
66547;BME280;53400;50.364;14.874;2023-05-03T00:14:01;99485.72;;;8.46;81.07
66547;BME280;53400;50.364;14.874;2023-05-03T00:16:27;99486.34;;;8.35;80.58
66547;BME280;53400;50.364;14.874;2023-05-03T00:18:53;99496.81;;;8.36;80.92
66547;BME280;53400;50.364;14.874;2023-05-03T00:21:19;99488.63;;;8.18;81.45
66547;BME280;53400;50.364;14.874;2023-05-03T00:23:47;99487.38;;;8.34;80.99
66547;BME280;53400;50.364;14.874;2023-05-03T00:26:12;99484.72;;;8.40;81.00
66547;BME280;53400;50.364;14.874;2023-05-03T00:28:38;99482.88;;;8.34;80.94
66547;BME280;53400;50.364;14.874;2023-05-03T00:31:08;99493.56;;;8.41;81.09
66547;BME280;53400;50.364;14.874;2023-05-03T00:33:34;99480.84;;;8.23;81.48
66547;BME280;53400;50.364;14.874;2023-05-03T00:36:06;99486.56;;;8.26;80.91
66547;BME280;53400;50.364;14.874;2023-05-03T00:38:32;99489.84;;;8.35;80.09
66547;BME280;53400;50.364;14.874;2023-05-03T00:40:59;99486.78;;;8.18;80.00
66547;BME280;53400;50.364;14.874;2023-05-03T00:43:26;99491.75;;;7.95;81.51
66547;BME280;53400;50.364;14.874;2023-05-03T00:45:53;99491.09;;;8.06;80.69
66547;BME280;53400;50.364;14.874;2023-05-03T00:48:19;99498.31;;;7.99;80.00
66547;BME280;53400;50.364;14.874;2023-05-03T00:50:45;99502.38;;;8.15;79.74
66547;BME280;53400;50.364;14.874;2023-05-03T00:53:12;99497.88;;;8.15;79.23
66547;BME280;53400;50.364;14.874;2023-05-03T00:55:39;99497.06;;;8.08;78.70
66547;BME280;53400;50.364;14.874;2023-05-03T00:58:07;99508.38;;;8.10;78.53
66547;BME280;53400;50.364;14.874;2023-05-03T01:00:33;99507.94;;;8.13;77.59
66547;BME280;53400;50.364;14.874;2023-05-03T01:02:59;99508.38;;;7.77;78.46
66547;BME280;53400;50.364;14.874;2023-05-03T01:05:28;99502.84;;;7.92;78.48
66547;BME280;53400;50.364;14.874;2023-05-03T01:08:02;99500.38;;;7.77;76.96
66547;BME280;53400;50.364;14.874;2023-05-03T01:10:39;99496.88;;;7.63;77.06
66547;BME280;53400;50.364;14.874;2023-05-03T01:13:13;99500.16;;;7.78;76.12
66547;BME280;53400;50.364;14.874;2023-05-03T01:15:44;99489.50;;;7.65;75.24
66547;BME280;53400;50.364;14.874;2023-05-03T01:18:17;99485.38;;;7.69;75.11
66547;BME280;53400;50.364;14.874;2023-05-03T01:20:47;99496.88;;;7.70;74.91
66547;BME280;53400;50.364;14.874;2023-05-03T01:23:20;99506.72;;;7.63;74.55
66547;BME280;53400;50.364;14.874;2023-05-03T01:25:53;99508.75;;;7.54;74.65
66547;BME280;53400;50.364;14.874;2023-05-03T01:28:19;99499.94;;;7.60;74.03
66547;BME280;53400;50.364;14.874;2023-05-03T01:30:45;99503.44;;;7.67;74.28
66547;BME280;53400;50.364;14.874;2023-05-03T01:33:23;99493.38;;;7.69;73.42
66547;BME280;53400;50.364;14.874;2023-05-03T01:35:53;99502.19;;;7.56;73.98
66547;BME280;53400;50.364;14.874;2023-05-03T01:38:22;99500.56;;;7.49;73.72
66547;BME280;53400;50.364;14.874;2023-05-03T01:40:51;99486.84;;;7.52;74.02
66547;BME280;53400;50.364;14.874;2023-05-03T01:43:19;99489.91;;;7.55;73.23
66547;BME280;53400;50.364;14.874;2023-05-03T01:45:45;99498.31;;;7.52;72.99
66547;BME280;53400;50.364;14.874;2023-05-03T01:48:14;99501.97;;;7.38;72.76
66547;BME280;53400;50.364;14.874;2023-05-03T01:50:41;99504.66;;;7.51;72.99
66547;BME280;53400;50.364;14.874;2023-05-03T01:53:07;99515.72;;;7.42;72.90
66547;BME280;53400;50.364;14.874;2023-05-03T01:55:33;99508.69;;;7.14;73.90
66547;BME280;53400;50.364;14.874;2023-05-03T01:57:59;99505.03;;;7.35;73.53
66547;BME280;53400;50.364;14.874;2023-05-03T02:00:26;99508.16;;;7.58;72.42
66547;BME280;53400;50.364;14.874;2023-05-03T02:02:52;99500.53;;;7.42;72.75
66547;BME280;53400;50.364;14.874;2023-05-03T02:05:18;99505.03;;;7.35;71.25
66547;BME280;53400;50.364;14.874;2023-05-03T02:07:44;99501.97;;;7.45;71.30
66547;BME280;53400;50.364;14.874;2023-05-03T02:10:10;99498.47;;;7.31;71.16
66547;BME280;53400;50.364;14.874;2023-05-03T02:12:39;99503.09;;;6.96;72.79
66547;BME280;53400;50.364;14.874;2023-05-03T02:15:06;99504.78;;;7.10;71.96
66547;BME280;53400;50.364;14.874;2023-05-03T02:17:34;99494.56;;;7.27;71.52
66547;BME280;53400;50.364;14.874;2023-05-03T02:20:00;99500.09;;;7.25;71.17
66547;BME280;53400;50.364;14.874;2023-05-03T02:22:26;99504.97;;;7.15;71.41
66547;BME280;53400;50.364;14.874;2023-05-03T02:24:52;99505.59;;;7.10;71.63
66547;BME280;53400;50.364;14.874;2023-05-03T02:27:18;99509.09;;;7.11;71.86
66547;BME280;53400;50.364;14.874;2023-05-03T02:29:43;99505.34;;;6.92;72.10
66547;BME280;53400;50.364;14.874;2023-05-03T02:32:09;99513.34;;;6.99;72.21
66547;BME280;53400;50.364;14.874;2023-05-03T02:34:37;99498.97;;;6.93;72.29
66547;BME280;53400;50.364;14.874;2023-05-03T02:37:04;99504.56;;;7.05;72.27
66547;BME280;53400;50.364;14.874;2023-05-03T02:39:29;99502.53;;;7.13;71.40
66547;BME280;53400;50.364;14.874;2023-05-03T02:41:56;99493.91;;;7.05;72.16
66547;BME280;53400;50.364;14.874;2023-05-03T02:44:22;99497.00;;;7.15;71.15
66547;BME280;53400;50.364;14.874;2023-05-03T02:46:47;99498.81;;;7.08;71.36
66547;BME280;53400;50.364;14.874;2023-05-03T02:49:13;99499.00;;;7.00;71.55
66547;BME280;53400;50.364;14.874;2023-05-03T02:51:41;99501.31;;;7.09;71.22
66547;BME280;53400;50.364;14.874;2023-05-03T02:54:12;99501.09;;;7.11;71.53
66547;BME280;53400;50.364;14.874;2023-05-03T02:56:38;99510.34;;;7.22;70.65
66547;BME280;53400;50.364;14.874;2023-05-03T02:59:04;99506.41;;;7.11;71.12
66547;BME280;53400;50.364;14.874;2023-05-03T03:01:32;99506.88;;;7.21;70.97
66547;BME280;53400;50.364;14.874;2023-05-03T03:03:58;99517.94;;;7.25;70.07
66547;BME280;53400;50.364;14.874;2023-05-03T03:06:24;99511.75;;;7.11;70.96
66547;BME280;53400;50.364;14.874;2023-05-03T03:08:51;99504.13;;;6.95;71.98
66547;BME280;53400;50.364;14.874;2023-05-03T03:11:17;99512.66;;;6.83;72.29
66547;BME280;53400;50.364;14.874;2023-05-03T03:13:43;99514.97;;;7.00;71.28
66547;BME280;53400;50.364;14.874;2023-05-03T03:16:09;99518.69;;;7.12;70.99
66547;BME280;53400;50.364;14.874;2023-05-03T03:18:35;99512.03;;;6.81;71.61
66547;BME280;53400;50.364;14.874;2023-05-03T03:21:02;99515.88;;;6.65;73.10
66547;BME280;53400;50.364;14.874;2023-05-03T03:23:28;99520.25;;;6.80;72.77
66547;BME280;53400;50.364;14.874;2023-05-03T03:25:55;99521.66;;;6.76;72.78
66547;BME280;53400;50.364;14.874;2023-05-03T03:28:21;99524.00;;;6.99;71.28
66547;BME280;53400;50.364;14.874;2023-05-03T03:30:47;99524.13;;;6.84;71.75
66547;BME280;53400;50.364;14.874;2023-05-03T03:33:13;99530.56;;;6.55;72.97
66547;BME280;53400;50.364;14.874;2023-05-03T03:35:39;99539.53;;;7.56;79.74
66547;BME280;53400;50.364;14.874;2023-05-03T03:38:05;99529.72;;;6.96;72.84
66547;BME280;53400;50.364;14.874;2023-05-03T03:40:32;99530.69;;;6.81;72.90
66547;BME280;53400;50.364;14.874;2023-05-03T03:43:00;99534.06;;;6.62;73.47
66547;BME280;53400;50.364;14.874;2023-05-03T03:45:26;99525.72;;;6.72;72.78
66547;BME280;53400;50.364;14.874;2023-05-03T03:47:52;99542.31;;;6.67;72.82
66547;BME280;53400;50.364;14.874;2023-05-03T03:50:18;99540.56;;;6.53;73.44
66547;BME280;53400;50.364;14.874;2023-05-03T03:52:46;99538.72;;;6.53;73.96
66547;BME280;53400;50.364;14.874;2023-05-03T03:55:12;99546.47;;;6.48;74.22
66547;BME280;53400;50.364;14.874;2023-05-03T03:57:38;99544.66;;;6.20;75.54
66547;BME280;53400;50.364;14.874;2023-05-03T04:00:07;99548.03;;;6.36;76.03
66547;BME280;53400;50.364;14.874;2023-05-03T04:02:36;99549.47;;;6.66;75.86
66547;BME280;53400;50.364;14.874;2023-05-03T04:05:03;99560.47;;;6.98;77.14
66547;BME280;53400;50.364;14.874;2023-05-03T04:07:29;99550.09;;;7.23;74.08
66547;BME280;53400;50.364;14.874;2023-05-03T04:09:55;99568.03;;;7.56;73.32
66547;BME280;53400;50.364;14.874;2023-05-03T04:12:21;99561.28;;;8.00;72.51
66547;BME280;53400;50.364;14.874;2023-05-03T04:14:47;99559.66;;;8.32;70.76
66547;BME280;53400;50.364;14.874;2023-05-03T04:17:14;99572.53;;;8.75;68.54
66547;BME280;53400;50.364;14.874;2023-05-03T04:19:40;99569.31;;;9.11;67.44
66547;BME280;53400;50.364;14.874;2023-05-03T04:22:06;99573.63;;;9.19;66.17
66547;BME280;53400;50.364;14.874;2023-05-03T04:24:32;99573.63;;;9.57;65.91
66547;BME280;53400;50.364;14.874;2023-05-03T04:26:58;99576.31;;;9.82;63.06
66547;BME280;53400;50.364;14.874;2023-05-03T04:29:26;99585.69;;;10.30;63.21
66547;BME280;53400;50.364;14.874;2023-05-03T04:31:52;99578.16;;;10.64;62.19
66547;BME280;53400;50.364;14.874;2023-05-03T04:34:20;99580.38;;;10.67;61.53
66547;BME280;53400;50.364;14.874;2023-05-03T04:36:46;99582.91;;;10.98;61.18
66547;BME280;53400;50.364;14.874;2023-05-03T04:39:13;99590.50;;;11.38;59.29
66547;BME280;53400;50.364;14.874;2023-05-03T04:41:40;99591.97;;;11.64;59.98
66547;BME280;53400;50.364;14.874;2023-05-03T04:44:07;99604.88;;;12.16;57.09
66547;BME280;53400;50.364;14.874;2023-05-03T04:46:33;99596.94;;;12.56;55.48
66547;BME280;53400;50.364;14.874;2023-05-03T04:48:59;99592.28;;;12.40;56.31
66547;BME280;53400;50.364;14.874;2023-05-03T04:51:26;99600.44;;;12.69;54.73
66547;BME280;53400;50.364;14.874;2023-05-03T04:53:53;99602.00;;;13.17;53.66
66547;BME280;53400;50.364;14.874;2023-05-03T04:56:18;99590.66;;;13.84;53.22
66547;BME280;53400;50.364;14.874;2023-05-03T04:58:51;99598.06;;;13.07;51.55
66547;BME280;53400;50.364;14.874;2023-05-03T05:01:17;99600.34;;;12.63;54.51
66547;BME280;53400;50.364;14.874;2023-05-03T05:03:43;99605.94;;;12.27;54.91
66547;BME280;53400;50.364;14.874;2023-05-03T05:06:09;99597.66;;;12.63;52.98
66547;BME280;53400;50.364;14.874;2023-05-03T05:08:38;99602.25;;;11.98;54.62
66547;BME280;53400;50.364;14.874;2023-05-03T05:11:04;99607.31;;;12.29;55.51
66547;BME280;53400;50.364;14.874;2023-05-03T05:13:30;99606.63;;;12.93;53.70
66547;BME280;53400;50.364;14.874;2023-05-03T05:15:56;99609.78;;;12.78;53.98
66547;BME280;53400;50.364;14.874;2023-05-03T05:18:22;99605.34;;;13.76;52.56
66547;BME280;53400;50.364;14.874;2023-05-03T05:20:48;99611.94;;;14.14;50.84
66547;BME280;53400;50.364;14.874;2023-05-03T05:23:14;99613.66;;;14.03;49.39
66547;BME280;53400;50.364;14.874;2023-05-03T05:25:42;99625.69;;;12.91;52.58
66547;BME280;53400;50.364;14.874;2023-05-03T05:28:08;99616.88;;;13.88;52.04
66547;BME280;53400;50.364;14.874;2023-05-03T05:30:34;99623.88;;;13.32;51.39
66547;BME280;53400;50.364;14.874;2023-05-03T05:33:01;99622.28;;;12.96;50.55
66547;BME280;53400;50.364;14.874;2023-05-03T05:35:27;99620.78;;;12.88;49.75
66547;BME280;53400;50.364;14.874;2023-05-03T05:37:53;99616.00;;;12.78;51.59
66547;BME280;53400;50.364;14.874;2023-05-03T05:40:20;99628.25;;;13.09;52.18
66547;BME280;53400;50.364;14.874;2023-05-03T05:42:48;99627.34;;;12.57;51.48
66547;BME280;53400;50.364;14.874;2023-05-03T05:45:14;99631.41;;;12.95;51.29
66547;BME280;53400;50.364;14.874;2023-05-03T05:47:40;99631.50;;;12.41;50.78
66547;BME280;53400;50.364;14.874;2023-05-03T05:50:07;99635.84;;;12.77;52.15
66547;BME280;53400;50.364;14.874;2023-05-03T05:52:33;99644.03;;;12.47;51.39
66547;BME280;53400;50.364;14.874;2023-05-03T05:54:59;99644.72;;;12.31;52.19
66547;BME280;53400;50.364;14.874;2023-05-03T05:57:26;99647.16;;;13.26;50.55
66547;BME280;53400;50.364;14.874;2023-05-03T05:59:53;99643.28;;;13.22;49.73
66547;BME280;53400;50.364;14.874;2023-05-03T06:02:19;99643.09;;;12.65;50.54
66547;BME280;53400;50.364;14.874;2023-05-03T06:04:47;99643.31;;;11.68;52.70
66547;BME280;53400;50.364;14.874;2023-05-03T06:07:13;99645.63;;;11.16;52.93
66547;BME280;53400;50.364;14.874;2023-05-03T06:09:41;99636.19;;;11.62;51.60
66547;BME280;53400;50.364;14.874;2023-05-03T06:12:07;99651.75;;;11.90;50.85
66547;BME280;53400;50.364;14.874;2023-05-03T06:14:33;99653.31;;;12.09;50.72
66547;BME280;53400;50.364;14.874;2023-05-03T06:17:00;99650.31;;;12.18;49.99
66547;BME280;53400;50.364;14.874;2023-05-03T06:19:26;99649.78;;;11.48;50.99
66547;BME280;53400;50.364;14.874;2023-05-03T06:21:53;99656.44;;;11.76;50.47
66547;BME280;53400;50.364;14.874;2023-05-03T06:24:18;99655.44;;;11.22;51.38
66547;BME280;53400;50.364;14.874;2023-05-03T06:26:45;99656.34;;;11.16;52.14
66547;BME280;53400;50.364;14.874;2023-05-03T06:29:12;99665.28;;;11.28;51.15
66547;BME280;53400;50.364;14.874;2023-05-03T06:31:38;99671.81;;;10.95;50.54
66547;BME280;53400;50.364;14.874;2023-05-03T06:34:07;99677.03;;;10.90;51.29
66547;BME280;53400;50.364;14.874;2023-05-03T06:36:34;99663.56;;;10.97;51.50
66547;BME280;53400;50.364;14.874;2023-05-03T06:39:05;99665.59;;;11.38;51.22
66547;BME280;53400;50.364;14.874;2023-05-03T06:41:34;99655.06;;;11.37;50.00
66547;BME280;53400;50.364;14.874;2023-05-03T06:44:00;99674.72;;;11.67;50.73
66547;BME280;53400;50.364;14.874;2023-05-03T06:46:27;99668.31;;;11.99;50.12
66547;BME280;53400;50.364;14.874;2023-05-03T06:48:52;99667.13;;;11.46;51.31
66547;BME280;53400;50.364;14.874;2023-05-03T06:51:22;99671.22;;;11.48;49.51
66547;BME280;53400;50.364;14.874;2023-05-03T06:53:52;99683.88;;;11.05;50.44
66547;BME280;53400;50.364;14.874;2023-05-03T06:56:18;99672.88;;;11.31;51.35
66547;BME280;53400;50.364;14.874;2023-05-03T06:58:44;99672.38;;;11.71;51.09
66547;BME280;53400;50.364;14.874;2023-05-03T07:01:10;99684.50;;;11.43;51.16
66547;BME280;53400;50.364;14.874;2023-05-03T07:03:37;99677.13;;;11.57;49.56
66547;BME280;53400;50.364;14.874;2023-05-03T07:06:04;99662.13;;;11.49;49.61
66547;BME280;53400;50.364;14.874;2023-05-03T07:08:31;99676.78;;;11.65;49.82
66547;BME280;53400;50.364;14.874;2023-05-03T07:10:58;99665.13;;;11.60;50.23
66547;BME280;53400;50.364;14.874;2023-05-03T07:13:23;99660.03;;;11.70;48.48
66547;BME280;53400;50.364;14.874;2023-05-03T07:15:50;99663.78;;;11.51;48.49
66547;BME280;53400;50.364;14.874;2023-05-03T07:18:15;99667.31;;;11.81;48.61
66547;BME280;53400;50.364;14.874;2023-05-03T07:20:41;99667.19;;;12.06;48.67
66547;BME280;53400;50.364;14.874;2023-05-03T07:23:07;99691.09;;;11.96;48.00
66547;BME280;53400;50.364;14.874;2023-05-03T07:25:35;99683.75;;;11.36;48.72
66547;BME280;53400;50.364;14.874;2023-05-03T07:28:00;99672.13;;;11.06;50.26
66547;BME280;53400;50.364;14.874;2023-05-03T07:30:27;99677.41;;;11.12;49.33
66547;BME280;53400;50.364;14.874;2023-05-03T07:32:54;99669.66;;;11.41;48.92
66547;BME280;53400;50.364;14.874;2023-05-03T07:35:20;99672.28;;;11.29;49.13
66547;BME280;53400;50.364;14.874;2023-05-03T07:37:47;99663.78;;;11.51;49.56
66547;BME280;53400;50.364;14.874;2023-05-03T07:40:13;99666.94;;;11.29;49.55
66547;BME280;53400;50.364;14.874;2023-05-03T07:42:41;99665.19;;;11.35;48.85
66547;BME280;53400;50.364;14.874;2023-05-03T07:45:08;99678.78;;;11.88;47.77
66547;BME280;53400;50.364;14.874;2023-05-03T07:47:34;99657.88;;;12.09;47.60
66547;BME280;53400;50.364;14.874;2023-05-03T07:50:03;99662.84;;;11.93;48.08
66547;BME280;53400;50.364;14.874;2023-05-03T07:52:34;99669.72;;;12.01;47.47
66547;BME280;53400;50.364;14.874;2023-05-03T07:55:01;99654.63;;;12.19;46.88
66547;BME280;53400;50.364;14.874;2023-05-03T07:57:28;99656.06;;;12.56;46.29
66547;BME280;53400;50.364;14.874;2023-05-03T07:59:55;99657.94;;;12.68;45.76
66547;BME280;53400;50.364;14.874;2023-05-03T08:02:21;99664.13;;;12.45;45.84
66547;BME280;53400;50.364;14.874;2023-05-03T08:04:47;99674.84;;;12.33;46.93
66547;BME280;53400;50.364;14.874;2023-05-03T08:07:13;99662.34;;;12.38;45.94
66547;BME280;53400;50.364;14.874;2023-05-03T08:09:44;99657.81;;;12.62;46.38
66547;BME280;53400;50.364;14.874;2023-05-03T08:12:10;99650.34;;;13.00;45.51
66547;BME280;53400;50.364;14.874;2023-05-03T08:14:36;99651.28;;;12.94;45.16
66547;BME280;53400;50.364;14.874;2023-05-03T08:17:03;99659.34;;;12.94;44.66
66547;BME280;53400;50.364;14.874;2023-05-03T08:19:30;99655.63;;;12.48;46.20
66547;BME280;53400;50.364;14.874;2023-05-03T08:21:55;99649.00;;;12.08;47.20
66547;BME280;53400;50.364;14.874;2023-05-03T08:24:23;99649.63;;;12.81;46.93
66547;BME280;53400;50.364;14.874;2023-05-03T08:26:49;99648.44;;;13.36;45.44
66547;BME280;53400;50.364;14.874;2023-05-03T08:29:15;99644.75;;;12.66;44.98
66547;BME280;53400;50.364;14.874;2023-05-03T08:31:41;99649.75;;;12.98;45.25
66547;BME280;53400;50.364;14.874;2023-05-03T08:34:09;99651.38;;;13.34;44.02
66547;BME280;53400;50.364;14.874;2023-05-03T08:36:35;99652.19;;;13.63;42.99
66547;BME280;53400;50.364;14.874;2023-05-03T08:39:03;99648.56;;;13.05;45.69
66547;BME280;53400;50.364;14.874;2023-05-03T08:41:32;99643.56;;;13.09;45.32
66547;BME280;53400;50.364;14.874;2023-05-03T08:43:59;99652.53;;;13.38;45.34
66547;BME280;53400;50.364;14.874;2023-05-03T08:46:26;99643.09;;;13.64;43.33
66547;BME280;53400;50.364;14.874;2023-05-03T08:48:53;99642.94;;;13.71;43.96
66547;BME280;53400;50.364;14.874;2023-05-03T08:51:22;99648.00;;;14.30;43.80
66547;BME280;53400;50.364;14.874;2023-05-03T08:53:48;99639.84;;;14.41;43.94
66547;BME280;53400;50.364;14.874;2023-05-03T08:56:22;99642.09;;;15.00;42.74
66547;BME280;53400;50.364;14.874;2023-05-03T08:58:48;99639.13;;;14.80;43.17
66547;BME280;53400;50.364;14.874;2023-05-03T09:01:14;99640.44;;;15.16;42.28
66547;BME280;53400;50.364;14.874;2023-05-03T09:03:47;99637.19;;;14.58;42.50
66547;BME280;53400;50.364;14.874;2023-05-03T09:06:18;99646.28;;;14.52;41.95
66547;BME280;53400;50.364;14.874;2023-05-03T09:08:46;99639.09;;;14.58;42.51
66547;BME280;53400;50.364;14.874;2023-05-03T09:11:19;99639.13;;;14.80;41.75
66547;BME280;53400;50.364;14.874;2023-05-03T09:13:46;99639.94;;;15.19;40.67
66547;BME280;53400;50.364;14.874;2023-05-03T09:16:21;99644.19;;;14.26;41.67
66547;BME280;53400;50.364;14.874;2023-05-03T09:18:55;99644.56;;;14.17;42.50
66547;BME280;53400;50.364;14.874;2023-05-03T09:21:22;99639.22;;;13.60;43.36
66547;BME280;53400;50.364;14.874;2023-05-03T09:23:49;99639.22;;;13.60;41.98
66547;BME280;53400;50.364;14.874;2023-05-03T09:26:26;99645.31;;;14.13;42.44
66547;BME280;53400;50.364;14.874;2023-05-03T09:28:52;99639.69;;;14.14;42.71
66547;BME280;53400;50.364;14.874;2023-05-03T09:31:19;99631.94;;;14.68;41.63
66547;BME280;53400;50.364;14.874;2023-05-03T09:33:45;99633.03;;;13.88;42.27
66547;BME280;53400;50.364;14.874;2023-05-03T09:36:11;99634.44;;;14.08;42.89
66547;BME280;53400;50.364;14.874;2023-05-03T09:38:37;99636.03;;;14.54;43.03
66547;BME280;53400;50.364;14.874;2023-05-03T09:41:04;99638.06;;;13.27;44.17
66547;BME280;53400;50.364;14.874;2023-05-03T09:43:33;99637.66;;;13.76;45.36
66547;BME280;53400;50.364;14.874;2023-05-03T09:46:10;99625.63;;;13.95;42.94
66547;BME280;53400;50.364;14.874;2023-05-03T09:48:36;99627.38;;;15.08;41.91
66547;BME280;53400;50.364;14.874;2023-05-03T09:51:03;99633.31;;;14.88;43.95
66547;BME280;53400;50.364;14.874;2023-05-03T09:53:31;99630.03;;;15.25;41.32
66547;BME280;53400;50.364;14.874;2023-05-03T09:55:56;99618.72;;;15.72;41.63
66547;BME280;53400;50.364;14.874;2023-05-03T09:58:25;99623.16;;;15.83;39.76
66547;BME280;53400;50.364;14.874;2023-05-03T10:00:53;99618.66;;;15.94;41.35
66547;BME280;53400;50.364;14.874;2023-05-03T10:03:22;99621.28;;;16.48;39.71
66547;BME280;53400;50.364;14.874;2023-05-03T10:05:52;99625.50;;;15.74;39.88
66547;BME280;53400;50.364;14.874;2023-05-03T10:08:25;99622.44;;;15.22;41.21
66547;BME280;53400;50.364;14.874;2023-05-03T10:10:52;99614.78;;;15.13;42.17
66547;BME280;53400;50.364;14.874;2023-05-03T10:13:20;99612.16;;;15.90;41.85
66547;BME280;53400;50.364;14.874;2023-05-03T10:16:02;99609.50;;;16.27;44.57
66547;BME280;53400;50.364;14.874;2023-05-03T10:18:31;99615.75;;;16.65;39.81
66547;BME280;53400;50.364;14.874;2023-05-03T10:21:01;99600.81;;;16.20;40.29
66547;BME280;53400;50.364;14.874;2023-05-03T10:23:30;99609.19;;;15.91;39.75
66547;BME280;53400;50.364;14.874;2023-05-03T10:26:12;99603.44;;;16.47;39.69
66547;BME280;53400;50.364;14.874;2023-05-03T10:28:39;99598.47;;;15.25;41.45
66547;BME280;53400;50.364;14.874;2023-05-03T10:31:44;99601.22;;;16.39;40.36
66547;BME280;53400;50.364;14.874;2023-05-03T10:34:22;99589.59;;;16.06;39.46
66547;BME280;53400;50.364;14.874;2023-05-03T10:36:49;99596.38;;;15.76;40.33
66547;BME280;53400;50.364;14.874;2023-05-03T10:39:18;99592.28;;;15.74;39.98
66547;BME280;53400;50.364;14.874;2023-05-03T10:41:46;99583.19;;;15.36;40.72
66547;BME280;53400;50.364;14.874;2023-05-03T10:44:25;99589.19;;;16.19;40.85
66547;BME280;53400;50.364;14.874;2023-05-03T10:46:53;99597.00;;;16.53;40.56
66547;BME280;53400;50.364;14.874;2023-05-03T10:49:21;99589.81;;;15.72;40.65
66547;BME280;53400;50.364;14.874;2023-05-03T10:51:49;99591.72;;;15.06;39.97
66547;BME280;53400;50.364;14.874;2023-05-03T10:54:15;99591.22;;;14.87;41.58
66547;BME280;53400;50.364;14.874;2023-05-03T10:56:50;99589.72;;;15.18;40.69
66547;BME280;53400;50.364;14.874;2023-05-03T10:59:17;99596.91;;;15.07;39.92
66547;BME280;53400;50.364;14.874;2023-05-03T11:01:43;99586.28;;;15.01;39.62
66547;BME280;53400;50.364;14.874;2023-05-03T11:04:15;99588.25;;;15.54;39.97
66547;BME280;53400;50.364;14.874;2023-05-03T11:06:44;99590.66;;;16.37;39.37
66547;BME280;53400;50.364;14.874;2023-05-03T11:09:13;99586.19;;;15.62;39.50
66547;BME280;53400;50.364;14.874;2023-05-03T11:11:40;99590.44;;;16.12;40.05
66547;BME280;53400;50.364;14.874;2023-05-03T11:14:06;99582.66;;;16.52;38.58
66547;BME280;53400;50.364;14.874;2023-05-03T11:16:33;99581.63;;;16.64;37.98
66547;BME280;53400;50.364;14.874;2023-05-03T11:19:00;99576.09;;;16.06;37.72
66547;BME280;53400;50.364;14.874;2023-05-03T11:21:28;99577.28;;;15.88;40.67
66547;BME280;53400;50.364;14.874;2023-05-03T11:23:54;99571.47;;;14.81;39.62
66547;BME280;53400;50.364;14.874;2023-05-03T11:26:20;99573.22;;;15.64;40.55
66547;BME280;53400;50.364;14.874;2023-05-03T11:28:52;99572.53;;;14.80;40.85
66547;BME280;53400;50.364;14.874;2023-05-03T11:31:20;99566.06;;;15.47;41.12
66547;BME280;53400;50.364;14.874;2023-05-03T11:33:48;99570.66;;;16.38;40.96
66547;BME280;53400;50.364;14.874;2023-05-03T11:36:14;99575.53;;;16.04;38.57
66547;BME280;53400;50.364;14.874;2023-05-03T11:38:42;99563.25;;;15.64;39.37
66547;BME280;53400;50.364;14.874;2023-05-03T11:41:12;99564.38;;;14.75;41.35
66547;BME280;53400;50.364;14.874;2023-05-03T11:43:40;99563.63;;;15.24;39.56
66547;BME280;53400;50.364;14.874;2023-05-03T11:46:06;99565.94;;;15.91;38.04
66547;BME280;53400;50.364;14.874;2023-05-03T11:48:33;99567.41;;;16.36;38.66
66547;BME280;53400;50.364;14.874;2023-05-03T11:51:06;99567.09;;;16.75;38.20
66547;BME280;53400;50.364;14.874;2023-05-03T11:53:32;99559.69;;;17.03;36.96
66547;BME280;53400;50.364;14.874;2023-05-03T11:55:59;99549.78;;;17.29;37.74
66547;BME280;53400;50.364;14.874;2023-05-03T11:58:26;99552.16;;;16.67;37.53
66547;BME280;53400;50.364;14.874;2023-05-03T12:00:53;99551.81;;;16.96;38.47
66547;BME280;53400;50.364;14.874;2023-05-03T12:03:20;99553.97;;;16.51;39.65
66547;BME280;53400;50.364;14.874;2023-05-03T12:05:47;99553.53;;;16.27;38.25
66547;BME280;53400;50.364;14.874;2023-05-03T12:08:14;99552.50;;;16.28;37.58
66547;BME280;53400;50.364;14.874;2023-05-03T12:10:41;99556.34;;;16.80;36.66
66547;BME280;53400;50.364;14.874;2023-05-03T12:13:08;99552.16;;;16.62;38.63
66547;BME280;53400;50.364;14.874;2023-05-03T12:15:36;99555.63;;;17.00;39.21
66547;BME280;53400;50.364;14.874;2023-05-03T12:18:05;99556.97;;;17.03;37.84
66547;BME280;53400;50.364;14.874;2023-05-03T12:20:31;99548.25;;;16.85;37.26
66547;BME280;53400;50.364;14.874;2023-05-03T12:23:00;99556.34;;;16.80;38.00
66547;BME280;53400;50.364;14.874;2023-05-03T12:25:30;99545.22;;;16.34;39.68
66547;BME280;53400;50.364;14.874;2023-05-03T12:27:59;99545.53;;;16.80;39.98
66547;BME280;53400;50.364;14.874;2023-05-03T12:30:29;99545.44;;;16.70;39.52
66547;BME280;53400;50.364;14.874;2023-05-03T12:32:56;99544.16;;;16.78;39.88
66547;BME280;53400;50.364;14.874;2023-05-03T12:35:22;99536.94;;;16.99;40.64
66547;BME280;53400;50.364;14.874;2023-05-03T12:37:49;99538.84;;;17.03;40.79
66547;BME280;53400;50.364;14.874;2023-05-03T12:40:18;99533.75;;;17.22;39.20
66547;BME280;53400;50.364;14.874;2023-05-03T12:42:53;99538.72;;;17.61;37.92
66547;BME280;53400;50.364;14.874;2023-05-03T12:45:20;99532.38;;;17.09;37.83
66547;BME280;53400;50.364;14.874;2023-05-03T12:47:48;99531.16;;;16.80;38.76
66547;BME280;53400;50.364;14.874;2023-05-03T12:50:14;99532.41;;;17.14;37.72
66547;BME280;53400;50.364;14.874;2023-05-03T12:52:40;99525.41;;;16.66;37.38
66547;BME280;53400;50.364;14.874;2023-05-03T12:55:09;99526.41;;;16.49;39.07